N930WF KDPA-KJQF
Flight info
| Callsign | N930WF |
|---|---|
| Flight time | N/A |
| Altitude | 39000 |
| Route | ELANR9 EMEGE GZG BZM PEGTE |
| Aircraft | C750/M-SBDE3FGHRWXY/S |
Departure
| Time | 2026-05-07 18:20 |
|---|---|
| Airport | Dupage Airport (KDPA) |
Arrival
| Time | N/A |
|---|---|
| Airport | Concord-Padgett Regional Airport (KJQF) |
| Time | Latitude | Longitude | Altitude | Speed | Heading |
|---|---|---|---|---|---|
| 2026-05-07 18:14 | 41.90520 | -88.25510 | 755 ft | 0 kts | 0° |
| 2026-05-07 18:16 | 41.90521 | -88.25510 | 755 ft | 2 kts | 0° |
| 2026-05-07 18:16 | 41.90567 | -88.25486 | 756 ft | 12 kts | 30° |
| 2026-05-07 18:17 | 41.90654 | -88.25392 | 755 ft | 20 kts | 65° |
| 2026-05-07 18:17 | 41.90676 | -88.25180 | 760 ft | 22 kts | 89° |
| 2026-05-07 18:17 | 41.90741 | -88.25128 | 762 ft | 11 kts | 360° |
| 2026-05-07 18:17 | 41.90810 | -88.25127 | 763 ft | 9 kts | 0° |
| 2026-05-07 18:18 | 41.90875 | -88.25127 | 764 ft | 11 kts | 0° |
| 2026-05-07 18:18 | 41.90964 | -88.25126 | 763 ft | 15 kts | 360° |
| 2026-05-07 18:18 | 41.91078 | -88.25125 | 762 ft | 13 kts | 11° |
| 2026-05-07 18:18 | 41.91089 | -88.25026 | 762 ft | 12 kts | 95° |
| 2026-05-07 18:19 | 41.91081 | -88.24908 | 765 ft | 13 kts | 95° |
| 2026-05-07 18:19 | 41.91070 | -88.24806 | 765 ft | 5 kts | 129° |
| 2026-05-07 18:19 | 41.91059 | -88.24804 | 765 ft | 0 kts | 189° |
| 2026-05-07 18:19 | 41.90910 | -88.24852 | 764 ft | 73 kts | 195° |
| 2026-05-07 18:20 | 41.90125 | -88.25116 | 823 ft | 140 kts | 197° |
| 2026-05-07 18:20 | 41.89132 | -88.25459 | 1339 ft | 157 kts | 198° |
| 2026-05-07 18:20 | 41.88003 | -88.25835 | 1994 ft | 178 kts | 198° |
| 2026-05-07 18:20 | 41.86687 | -88.26089 | 2580 ft | 207 kts | 184° |
| 2026-05-07 18:21 | 41.85160 | -88.25832 | 3175 ft | 233 kts | 175° |
| 2026-05-07 18:21 | 41.83500 | -88.25471 | 3829 ft | 246 kts | 176° |
| 2026-05-07 18:21 | 41.81790 | -88.25109 | 4485 ft | 252 kts | 176° |
| 2026-05-07 18:21 | 41.80047 | -88.24736 | 5280 ft | 257 kts | 176° |
| 2026-05-07 18:22 | 41.78294 | -88.24189 | 5995 ft | 273 kts | 162° |
| 2026-05-07 18:22 | 41.77169 | -88.23308 | 6482 ft | 279 kts | 151° |
| 2026-05-07 18:22 | 41.75401 | -88.20701 | 7410 ft | 293 kts | 128° |
| 2026-05-07 18:22 | 41.74231 | -88.18425 | 8245 ft | 298 kts | 128° |
| 2026-05-07 18:23 | 41.73053 | -88.16118 | 9122 ft | 302 kts | 128° |
| 2026-05-07 18:23 | 41.71853 | -88.13782 | 10071 ft | 307 kts | 128° |
| 2026-05-07 18:23 | 41.70630 | -88.11407 | 10950 ft | 312 kts | 128° |
| 2026-05-07 18:23 | 41.69387 | -88.08990 | 11764 ft | 319 kts | 128° |
| 2026-05-07 18:24 | 41.68115 | -88.06518 | 12548 ft | 326 kts | 128° |
| 2026-05-07 18:24 | 41.66816 | -88.03995 | 13351 ft | 333 kts | 128° |
| 2026-05-07 18:24 | 41.65489 | -88.01418 | 14128 ft | 339 kts | 128° |
| 2026-05-07 18:24 | 41.64141 | -87.98805 | 14876 ft | 343 kts | 129° |
| 2026-05-07 18:25 | 41.62774 | -87.96160 | 15634 ft | 348 kts | 129° |
| 2026-05-07 18:25 | 41.61386 | -87.93481 | 16417 ft | 352 kts | 129° |
| 2026-05-07 18:25 | 41.59996 | -87.90799 | 17108 ft | 359 kts | 129° |
| 2026-05-07 18:25 | 41.58558 | -87.88020 | 17813 ft | 367 kts | 129° |
| 2026-05-07 18:26 | 41.57090 | -87.85182 | 18484 ft | 375 kts | 129° |
| 2026-05-07 18:26 | 41.55590 | -87.82291 | 19093 ft | 382 kts | 129° |
| 2026-05-07 18:26 | 41.54061 | -87.79347 | 19717 ft | 390 kts | 129° |
| 2026-05-07 18:26 | 41.52505 | -87.76353 | 20350 ft | 396 kts | 129° |
| 2026-05-07 18:27 | 41.50919 | -87.73305 | 20998 ft | 403 kts | 129° |
| 2026-05-07 18:27 | 41.49308 | -87.70211 | 21655 ft | 410 kts | 129° |
| 2026-05-07 18:27 | 41.47668 | -87.67067 | 22325 ft | 416 kts | 130° |
| 2026-05-07 18:27 | 41.45995 | -87.63864 | 23012 ft | 422 kts | 130° |
| 2026-05-07 18:28 | 41.44092 | -87.60960 | 23514 ft | 422 kts | 145° |
| 2026-05-07 18:28 | 41.41739 | -87.58636 | 23924 ft | 419 kts | 159° |
| 2026-05-07 18:28 | 41.39116 | -87.57014 | 24346 ft | 413 kts | 172° |
| 2026-05-07 18:28 | 41.36348 | -87.56138 | 24784 ft | 404 kts | 184° |
| 2026-05-07 18:29 | 41.33545 | -87.55665 | 25283 ft | 409 kts | 186° |
| 2026-05-07 18:29 | 41.30696 | -87.55178 | 25773 ft | 415 kts | 186° |
| 2026-05-07 18:29 | 41.27863 | -87.54672 | 26258 ft | 418 kts | 186° |
| 2026-05-07 18:29 | 41.24969 | -87.54161 | 26878 ft | 420 kts | 186° |
| 2026-05-07 18:30 | 41.22059 | -87.53662 | 27553 ft | 423 kts | 187° |
| 2026-05-07 18:30 | 41.19121 | -87.53076 | 28131 ft | 435 kts | 183° |
| 2026-05-07 18:30 | 41.16138 | -87.52243 | 28759 ft | 439 kts | 182° |
| 2026-05-07 18:30 | 41.13137 | -87.51429 | 29401 ft | 442 kts | 183° |
| 2026-05-07 18:31 | 41.10100 | -87.50636 | 29992 ft | 446 kts | 183° |
| 2026-05-07 18:31 | 41.07047 | -87.49826 | 30517 ft | 450 kts | 182° |
| 2026-05-07 18:31 | 41.03964 | -87.48986 | 31032 ft | 453 kts | 182° |
| 2026-05-07 18:31 | 41.00867 | -87.48150 | 31548 ft | 456 kts | 182° |
| 2026-05-07 18:32 | 40.97743 | -87.47321 | 32044 ft | 459 kts | 182° |
| 2026-05-07 18:32 | 40.94620 | -87.46486 | 32838 ft | 455 kts | 182° |
| 2026-05-07 18:32 | 40.91529 | -87.45651 | 33605 ft | 452 kts | 182° |
| 2026-05-07 18:32 | 40.88458 | -87.44835 | 34259 ft | 450 kts | 182° |
| 2026-05-07 18:33 | 40.85430 | -87.44036 | 34816 ft | 449 kts | 182° |
| 2026-05-07 18:33 | 40.82366 | -87.43222 | 35355 ft | 450 kts | 182° |
| 2026-05-07 18:33 | 40.79258 | -87.42391 | 35921 ft | 450 kts | 181° |
| 2026-05-07 18:33 | 40.76232 | -87.41585 | 36476 ft | 449 kts | 181° |
| 2026-05-07 18:34 | 40.73168 | -87.40775 | 37020 ft | 450 kts | 181° |
| 2026-05-07 18:34 | 40.70056 | -87.39961 | 37202 ft | 459 kts | 181° |
| 2026-05-07 18:34 | 40.66937 | -87.39126 | 37956 ft | 455 kts | 181° |
| 2026-05-07 18:34 | 40.63828 | -87.38290 | 38542 ft | 455 kts | 181° |
| 2026-05-07 18:35 | 40.60750 | -87.37475 | 38960 ft | 442 kts | 181° |
| 2026-05-07 18:35 | 40.54606 | -87.35888 | 39026 ft | 462 kts | 181° |
| 2026-05-07 18:35 | 40.51412 | -87.35049 | 39035 ft | 475 kts | 180° |
| 2026-05-07 18:36 | 40.48170 | -87.34080 | 39029 ft | 495 kts | 175° |
| 2026-05-07 18:36 | 40.44852 | -87.32488 | 39028 ft | 521 kts | 166° |
| 2026-05-07 18:36 | 40.41582 | -87.30194 | 39033 ft | 545 kts | 158° |
| 2026-05-07 18:36 | 40.38412 | -87.27307 | 39060 ft | 561 kts | 152° |
| 2026-05-07 18:37 | 40.35272 | -87.24193 | 39050 ft | 568 kts | 151° |
| 2026-05-07 18:37 | 40.28836 | -87.18199 | 39041 ft | 566 kts | 155° |
| 2026-05-07 18:38 | 40.22379 | -87.12208 | 39045 ft | 570 kts | 152° |
| 2026-05-07 18:38 | 40.15944 | -87.06173 | 39039 ft | 568 kts | 154° |
| 2026-05-07 18:39 | 40.09467 | -87.00222 | 39034 ft | 569 kts | 153° |
| 2026-05-07 18:39 | 40.03075 | -86.94253 | 39036 ft | 568 kts | 154° |